createdAt,value
2022-07-29T00:02:15.842Z,51.92
2022-07-29T00:04:42.621Z,51.85
2022-07-29T00:07:09.254Z,52.21
2022-07-29T00:09:43.011Z,51.88
2022-07-29T00:12:18.151Z,52.04
2022-07-29T00:14:52.632Z,51.96
2022-07-29T00:17:19.233Z,51.76
2022-07-29T00:19:45.787Z,51.97
2022-07-29T00:22:12.274Z,52.05
2022-07-29T00:24:38.787Z,51.96
2022-07-29T00:27:05.282Z,52.40
2022-07-29T00:29:33.977Z,52.58
2022-07-29T00:32:01.508Z,52.50
2022-07-29T00:34:46.363Z,52.17
2022-07-29T00:37:12.861Z,52.03
2022-07-29T00:39:39.361Z,52.00
2022-07-29T00:42:06.303Z,51.85
2022-07-29T00:44:37.960Z,52.06
2022-07-29T00:47:04.820Z,52.12
2022-07-29T00:49:31.531Z,51.97
2022-07-29T00:51:58.650Z,51.71
2022-07-29T00:54:25.290Z,52.17
2022-07-29T00:56:52.023Z,52.15
2022-07-29T00:59:18.665Z,52.19
2022-07-29T01:01:45.208Z,52.64
2022-07-29T01:04:11.909Z,52.86
2022-07-29T01:06:38.658Z,52.76
2022-07-29T01:09:05.571Z,52.98
2022-07-29T01:11:32.358Z,52.39
2022-07-29T01:13:59.141Z,52.35
2022-07-29T01:16:33.317Z,53.08
2022-07-29T01:19:35.630Z,52.45
2022-07-29T01:22:23.230Z,52.55
2022-07-29T01:25:18.444Z,52.00
2022-07-29T01:28:05.063Z,52.36
2022-07-29T01:30:35.176Z,52.39
2022-07-29T01:33:06.987Z,52.01
2022-07-29T01:35:40.321Z,52.26
2022-07-29T01:38:14.592Z,52.00
2022-07-29T01:40:52.204Z,52.65
2022-07-29T01:43:24.672Z,52.29
2022-07-29T01:46:01.574Z,52.30
2022-07-29T01:48:42.502Z,52.70
2022-07-29T01:51:12.348Z,52.23
2022-07-29T01:53:47.176Z,51.85
2022-07-29T01:56:16.284Z,52.52
2022-07-29T01:58:44.815Z,52.32
2022-07-29T02:01:13.982Z,53.08
2022-07-29T02:03:46.317Z,53.07
2022-07-29T02:06:17.048Z,52.79
2022-07-29T02:08:46.268Z,53.23
2022-07-29T02:11:12.798Z,53.96
2022-07-29T02:13:41.076Z,53.45
2022-07-29T02:16:10.499Z,52.85
2022-07-29T02:18:41.819Z,53.22
2022-07-29T02:21:15.547Z,53.28
2022-07-29T02:23:50.677Z,54.05
2022-07-29T02:26:20.025Z,54.20
2022-07-29T02:28:48.292Z,54.25
2022-07-29T02:31:16.719Z,54.13
2022-07-29T02:33:45.072Z,53.72
2022-07-29T02:36:12.344Z,53.78
2022-07-29T02:38:51.220Z,54.10
2022-07-29T02:41:21.666Z,54.13
2022-07-29T02:43:51.209Z,54.86
2022-07-29T02:46:28.589Z,54.14
2022-07-29T02:49:36.182Z,54.42
2022-07-29T02:52:05.759Z,55.22
2022-07-29T02:54:42.030Z,54.90
2022-07-29T02:57:54.971Z,55.03
2022-07-29T03:00:26.354Z,55.29
2022-07-29T03:02:56.202Z,55.69
2022-07-29T03:05:23.794Z,56.05
2022-07-29T03:07:56.180Z,55.92
2022-07-29T03:10:24.008Z,55.66
2022-07-29T03:12:50.918Z,56.10
2022-07-29T03:15:18.111Z,54.50
2022-07-29T03:17:44.995Z,55.80
2022-07-29T03:20:12.761Z,55.50
2022-07-29T03:22:44.423Z,55.06
2022-07-29T03:25:11.963Z,54.69
2022-07-29T03:27:38.487Z,54.71
2022-07-29T03:30:06.386Z,55.41
2022-07-29T03:32:36.228Z,56.15
2022-07-29T03:35:04.114Z,56.34
2022-07-29T03:37:31.515Z,55.91
2022-07-29T03:39:59.170Z,56.32
2022-07-29T03:42:32.395Z,56.25
2022-07-29T03:45:06.304Z,56.56
2022-07-29T03:47:50.022Z,57.27
2022-07-29T03:50:20.259Z,56.89
2022-07-29T03:52:47.595Z,57.45
2022-07-29T03:55:15.261Z,58.06
2022-07-29T03:57:42.527Z,57.36
2022-07-29T04:00:10.068Z,57.19
2022-07-29T04:02:38.822Z,56.83
2022-07-29T04:05:05.821Z,56.99
2022-07-29T04:07:32.511Z,56.61
2022-07-29T04:09:59.044Z,56.81
2022-07-29T04:12:25.796Z,56.72
2022-07-29T04:14:52.336Z,56.50
2022-07-29T04:17:18.815Z,56.49
2022-07-29T04:19:45.381Z,55.98
2022-07-29T04:22:11.929Z,56.35
2022-07-29T04:24:38.432Z,56.34
2022-07-29T04:27:04.986Z,56.56
2022-07-29T04:29:31.486Z,56.70
2022-07-29T04:31:57.995Z,57.44
2022-07-29T04:34:27.938Z,56.99
2022-07-29T04:36:54.988Z,56.74
2022-07-29T04:39:23.161Z,58.06
2022-07-29T04:41:51.119Z,58.08
2022-07-29T04:44:19.646Z,58.12
2022-07-29T04:46:46.779Z,59.55
2022-07-29T04:49:14.112Z,57.86
2022-07-29T04:51:40.857Z,57.60
2022-07-29T04:54:07.413Z,58.29
2022-07-29T04:56:33.907Z,60.00
2022-07-29T04:59:00.370Z,58.79
2022-07-29T05:01:26.920Z,58.01
2022-07-29T05:03:58.358Z,57.90
2022-07-29T05:06:26.801Z,57.67
2022-07-29T05:08:53.526Z,57.54
2022-07-29T05:11:22.483Z,58.02
2022-07-29T05:13:50.572Z,56.98
2022-07-29T05:16:17.060Z,57.34
2022-07-29T05:18:43.604Z,57.70
2022-07-29T05:21:10.133Z,57.66
2022-07-29T05:23:36.651Z,56.82
2022-07-29T05:26:03.161Z,56.80
2022-07-29T05:28:29.903Z,56.61
2022-07-29T05:30:57.235Z,57.14
2022-07-29T05:33:34.885Z,57.81
2022-07-29T05:36:03.725Z,57.36
2022-07-29T05:38:30.245Z,56.77
2022-07-29T05:40:59.098Z,56.26
2022-07-29T05:43:27.126Z,56.09
2022-07-29T05:45:53.577Z,56.37
2022-07-29T05:48:20.270Z,56.34
2022-07-29T05:50:46.722Z,55.95
2022-07-29T05:53:19.629Z,56.10
2022-07-29T05:55:50.520Z,57.04
2022-07-29T05:58:17.761Z,56.29
2022-07-29T06:00:44.719Z,57.42
2022-07-29T06:03:11.538Z,56.29
2022-07-29T06:05:38.338Z,57.10
2022-07-29T06:08:08.518Z,59.01
2022-07-29T06:10:38.078Z,56.83
2022-07-29T06:13:04.631Z,56.31
2022-07-29T06:15:31.164Z,55.90
2022-07-29T06:17:59.973Z,55.98
2022-07-29T06:20:30.561Z,55.88
2022-07-29T06:22:57.814Z,54.25
2022-07-29T06:25:24.327Z,55.62
2022-07-29T06:27:50.812Z,54.79
2022-07-29T06:30:17.284Z,55.63
2022-07-29T06:32:43.810Z,55.34
2022-07-29T06:35:37.738Z,54.86
2022-07-29T06:37:59.489Z,54.81
2022-07-29T06:40:45.167Z,54.22
2022-07-29T06:43:11.781Z,54.65
2022-07-29T06:45:42.158Z,54.18
2022-07-29T06:48:09.672Z,54.14
2022-07-29T06:50:36.595Z,54.34
2022-07-29T06:53:03.494Z,53.77
2022-07-29T06:55:38.015Z,53.50
2022-07-29T06:58:04.513Z,53.45
2022-07-29T07:00:31.320Z,54.12
2022-07-29T07:02:57.900Z,53.59
2022-07-29T07:05:24.342Z,53.15
2022-07-29T07:07:50.808Z,52.69
2022-07-29T07:10:17.364Z,52.64
2022-07-29T07:12:44.043Z,53.25
2022-07-29T07:15:10.816Z,52.49
2022-07-29T07:17:38.591Z,52.01
2022-07-29T07:20:06.760Z,51.56
2022-07-29T07:22:38.375Z,51.68
2022-07-29T07:25:05.703Z,52.20
2022-07-29T07:27:32.433Z,52.09
2022-07-29T07:29:58.950Z,51.83
2022-07-29T07:32:25.498Z,50.92
2022-07-29T07:34:52.185Z,50.89
2022-07-29T07:37:21.434Z,51.12
2022-07-29T07:39:47.952Z,51.85
2022-07-29T07:42:14.480Z,52.04
2022-07-29T07:45:03.778Z,52.15
2022-07-29T07:47:27.905Z,53.24
2022-07-29T07:49:54.565Z,52.55
2022-07-29T07:52:22.170Z,52.06
2022-07-29T07:54:49.798Z,52.71
2022-07-29T07:57:16.934Z,53.03
2022-07-29T07:59:43.604Z,52.21
2022-07-29T08:02:10.547Z,51.52
2022-07-29T08:04:37.790Z,51.54
2022-07-29T08:07:04.311Z,52.19
2022-07-29T08:09:30.976Z,51.95
2022-07-29T08:11:59.796Z,51.19
2022-07-29T08:14:26.318Z,50.72
2022-07-29T08:16:52.908Z,50.49
2022-07-29T08:19:19.483Z,50.88
2022-07-29T08:21:46.184Z,50.32
2022-07-29T08:24:31.199Z,50.93
2022-07-29T08:26:57.654Z,49.53
2022-07-29T08:29:24.108Z,49.56
2022-07-29T08:31:50.981Z,50.43
2022-07-29T08:34:17.886Z,49.04
2022-07-29T08:36:44.435Z,47.36
2022-07-29T08:39:16.780Z,48.98
2022-07-29T08:41:56.734Z,47.29
2022-07-29T08:44:30.505Z,47.58
2022-07-29T08:46:57.702Z,46.47
2022-07-29T08:49:24.317Z,46.92
2022-07-29T08:51:51.650Z,46.35
2022-07-29T08:54:19.457Z,47.41
2022-07-29T08:56:50.883Z,45.88
2022-07-29T08:59:21.805Z,46.41
2022-07-29T09:01:53.140Z,45.43
2022-07-29T09:04:21.635Z,44.22
2022-07-29T09:06:54.082Z,47.13
2022-07-29T09:09:20.963Z,44.10
2022-07-29T09:11:47.845Z,44.72
2022-07-29T09:14:15.429Z,44.81
2022-07-29T09:16:54.552Z,45.90
2022-07-29T09:19:32.095Z,45.12
2022-07-29T09:22:03.543Z,44.34
2022-07-29T09:24:47.726Z,47.81
2022-07-29T09:27:24.498Z,45.52
2022-07-29T09:30:11.735Z,44.75
2022-07-29T09:33:02.440Z,43.45
2022-07-29T09:35:29.864Z,44.63
2022-07-29T09:37:56.462Z,44.22
2022-07-29T09:40:26.070Z,44.17
2022-07-29T09:42:54.191Z,43.84
2022-07-29T09:45:32.593Z,41.93
2022-07-29T09:48:04.236Z,43.88
2022-07-29T09:50:39.290Z,41.20
2022-07-29T09:53:05.946Z,45.89
2022-07-29T09:55:32.637Z,42.47
2022-07-29T09:58:23.502Z,42.05
2022-07-29T10:00:51.471Z,42.28
2022-07-29T10:03:18.521Z,42.73
2022-07-29T10:05:46.906Z,42.17
2022-07-29T10:08:13.789Z,41.21
2022-07-29T10:10:42.780Z,41.28
2022-07-29T10:13:15.979Z,41.53
2022-07-29T10:15:45.289Z,42.99
2022-07-29T10:18:18.039Z,41.78
2022-07-29T10:20:44.561Z,42.35
2022-07-29T10:23:11.147Z,42.62
2022-07-29T10:25:37.887Z,40.12
2022-07-29T10:28:06.676Z,41.53
2022-07-29T10:30:33.686Z,43.33
2022-07-29T10:33:16.861Z,39.64
2022-07-29T10:36:03.921Z,40.82
2022-07-29T10:38:49.298Z,41.57
2022-07-29T10:41:28.995Z,41.20
2022-07-29T10:44:06.189Z,40.34
2022-07-29T10:46:38.601Z,41.54
2022-07-29T10:49:11.920Z,40.15
2022-07-29T10:51:51.423Z,39.85
2022-07-29T10:54:18.937Z,38.88
2022-07-29T10:56:45.534Z,39.67
2022-07-29T10:59:20.115Z,40.75
2022-07-29T11:01:53.374Z,41.78
2022-07-29T11:05:04.266Z,41.25
2022-07-29T11:10:17.852Z,41.02
2022-07-29T11:12:48.284Z,40.09
2022-07-29T11:15:20.106Z,39.94
2022-07-29T11:17:59.256Z,39.67
2022-07-29T11:20:50.022Z,40.27
2022-07-29T11:23:33.925Z,41.20
2022-07-29T11:26:10.500Z,41.99
2022-07-29T11:29:25.579Z,41.50
2022-07-29T11:31:57.413Z,41.19
2022-07-29T11:34:33.136Z,40.96
2022-07-29T11:37:07.581Z,41.00
2022-07-29T11:39:37.690Z,43.91
2022-07-29T11:42:28.472Z,41.16
2022-07-29T11:45:41.556Z,40.45
2022-07-29T11:47:56.073Z,40.40
2022-07-29T11:50:51.614Z,40.80
2022-07-29T11:53:18.569Z,41.13
2022-07-29T11:55:51.885Z,41.18
2022-07-29T11:58:24.899Z,41.09
2022-07-29T12:00:52.754Z,40.65
2022-07-29T12:03:35.225Z,40.58
2022-07-29T12:06:13.247Z,39.95
2022-07-29T12:08:44.325Z,40.79
2022-07-29T12:11:22.711Z,40.59
2022-07-29T12:13:53.815Z,40.89
2022-07-29T12:16:25.798Z,40.41
2022-07-29T12:19:02.165Z,40.92
2022-07-29T12:21:31.045Z,41.77
2022-07-29T12:24:05.899Z,41.08
2022-07-29T12:26:36.328Z,40.74
2022-07-29T12:29:03.768Z,41.07
2022-07-29T12:31:43.589Z,40.97
2022-07-29T12:34:13.251Z,41.32
2022-07-29T12:36:41.365Z,40.19
2022-07-29T12:39:08.128Z,41.38
2022-07-29T12:41:38.175Z,42.08
2022-07-29T12:44:05.147Z,41.43
2022-07-29T12:46:32.359Z,41.53
2022-07-29T12:48:59.652Z,42.54
2022-07-29T12:51:40.444Z,41.01
2022-07-29T12:54:16.679Z,40.29
2022-07-29T12:56:45.260Z,40.67
2022-07-29T12:59:23.456Z,41.01
2022-07-29T13:01:52.793Z,40.03
2022-07-29T13:04:31.008Z,40.83
2022-07-29T13:07:04.505Z,41.38
2022-07-29T13:09:43.592Z,41.50
2022-07-29T13:12:12.751Z,41.08
2022-07-29T13:14:39.137Z,41.45
2022-07-29T13:17:13.029Z,41.20
2022-07-29T13:19:42.669Z,40.46
2022-07-29T13:22:10.731Z,41.02
2022-07-29T13:24:55.081Z,41.43
2022-07-29T13:27:28.123Z,41.11
2022-07-29T13:30:00.455Z,41.29
2022-07-29T13:32:29.140Z,41.21
2022-07-29T13:35:01.113Z,42.02
2022-07-29T13:37:30.671Z,41.35
2022-07-29T13:39:58.356Z,41.36
2022-07-29T13:42:25.870Z,42.09
2022-07-29T13:44:52.755Z,42.84
2022-07-29T13:47:20.947Z,43.17
2022-07-29T13:49:47.566Z,42.98
2022-07-29T13:52:14.509Z,43.23
2022-07-29T13:54:42.593Z,44.29
2022-07-29T13:57:11.744Z,43.28
2022-07-29T13:59:38.931Z,42.34
2022-07-29T14:02:06.501Z,43.14
2022-07-29T14:04:34.379Z,43.74
2022-07-29T14:07:03.662Z,42.84
2022-07-29T14:09:30.863Z,43.11
2022-07-29T14:12:07.997Z,42.92
2022-07-29T14:14:36.505Z,44.17
2022-07-29T14:17:04.336Z,45.83
2022-07-29T14:19:32.866Z,47.51
2022-07-29T14:21:59.692Z,46.73
2022-07-29T14:24:26.453Z,46.90
2022-07-29T14:26:53.022Z,47.47
2022-07-29T14:29:19.873Z,46.94
2022-07-29T14:31:46.485Z,46.67
2022-07-29T14:34:13.138Z,46.84
2022-07-29T14:36:39.702Z,47.47
2022-07-29T14:39:06.162Z,47.10
2022-07-29T14:41:32.784Z,47.83
2022-07-29T14:44:01.561Z,47.92
2022-07-29T14:46:28.727Z,47.75
2022-07-29T14:48:55.653Z,46.99
2022-07-29T14:51:22.309Z,47.55
2022-07-29T14:53:48.853Z,47.43
2022-07-29T14:56:36.075Z,47.58
2022-07-29T14:59:01.839Z,46.97
2022-07-29T15:01:28.466Z,47.00
2022-07-29T15:03:59.548Z,46.93
2022-07-29T15:06:27.132Z,47.42
2022-07-29T15:08:53.616Z,48.48
2022-07-29T15:11:20.150Z,48.94
2022-07-29T15:13:46.628Z,49.23
2022-07-29T15:16:13.381Z,49.27
2022-07-29T15:18:40.164Z,49.73
2022-07-29T15:21:07.929Z,50.73
2022-07-29T15:23:38.507Z,51.47
2022-07-29T15:26:05.221Z,51.78
2022-07-29T15:28:31.752Z,52.32
2022-07-29T15:30:58.326Z,53.76
2022-07-29T15:33:24.947Z,54.60
2022-07-29T15:35:51.555Z,54.03
2022-07-29T15:38:18.505Z,54.88
2022-07-29T15:40:46.542Z,54.41
2022-07-29T15:43:13.159Z,54.39
2022-07-29T15:46:06.651Z,56.09
2022-07-29T15:48:33.460Z,56.61
2022-07-29T15:51:00.875Z,57.19
2022-07-29T15:53:27.361Z,56.95
2022-07-29T15:55:54.410Z,57.65
2022-07-29T15:58:21.086Z,59.07
2022-07-29T16:00:48.322Z,57.68
2022-07-29T16:03:14.892Z,58.47
2022-07-29T16:05:41.425Z,57.77
2022-07-29T16:08:08.020Z,57.59
2022-07-29T16:10:34.739Z,57.45
2022-07-29T16:13:01.684Z,58.39
2022-07-29T16:15:28.240Z,57.53
2022-07-29T16:17:54.899Z,57.38
2022-07-29T16:20:22.474Z,58.06
2022-07-29T16:22:49.559Z,58.31
2022-07-29T16:25:17.314Z,58.67
2022-07-29T16:27:43.850Z,59.92
2022-07-29T16:30:10.780Z,60.52
2022-07-29T16:32:38.954Z,58.58
2022-07-29T16:35:06.484Z,57.63
2022-07-29T16:37:37.159Z,58.16
2022-07-29T16:40:11.431Z,57.75
2022-07-29T16:42:47.243Z,58.14
2022-07-29T16:45:15.512Z,58.45
2022-07-29T16:47:42.200Z,58.86
2022-07-29T16:50:08.978Z,58.57
2022-07-29T16:52:35.980Z,58.70
2022-07-29T16:55:02.550Z,58.58
2022-07-29T16:57:29.163Z,58.90
2022-07-29T16:59:55.771Z,60.44
2022-07-29T17:02:22.365Z,60.64
2022-07-29T17:04:48.923Z,59.71
2022-07-29T17:07:16.031Z,60.47
2022-07-29T17:09:43.057Z,63.56
2022-07-29T17:12:09.731Z,63.93
2022-07-29T17:14:36.810Z,69.04
2022-07-29T17:17:04.374Z,72.78
2022-07-29T17:19:40.119Z,74.09
2022-07-29T17:22:14.330Z,76.36
2022-07-29T17:24:45.546Z,75.12
2022-07-29T17:27:12.337Z,76.94
2022-07-29T17:29:39.584Z,78.61
2022-07-29T17:32:07.737Z,77.76
2022-07-29T17:34:36.193Z,80.00
2022-07-29T17:37:04.145Z,79.09
2022-07-29T17:39:30.688Z,78.42
2022-07-29T17:41:57.395Z,79.40
2022-07-29T17:44:23.907Z,82.70
2022-07-29T17:46:50.517Z,83.36
2022-07-29T17:49:18.321Z,83.26
2022-07-29T17:51:44.895Z,84.23
2022-07-29T17:54:11.363Z,80.39
2022-07-29T17:56:37.914Z,85.02
2022-07-29T17:59:06.713Z,87.58
2022-07-29T18:01:33.895Z,90.76
2022-07-29T18:04:00.625Z,91.74
2022-07-29T18:06:27.165Z,88.16
2022-07-29T18:08:53.895Z,86.49
2022-07-29T18:11:20.396Z,88.28
2022-07-29T18:13:46.928Z,87.82
2022-07-29T18:16:13.965Z,89.47
2022-07-29T18:18:40.526Z,86.90
2022-07-29T18:21:07.651Z,89.70
2022-07-29T18:23:34.205Z,88.48
2022-07-29T18:26:00.737Z,88.81
2022-07-29T18:28:27.321Z,91.88
2022-07-29T18:30:53.961Z,92.68
2022-07-29T18:33:22.277Z,91.99
2022-07-29T18:35:51.287Z,90.66
2022-07-29T18:38:18.800Z,90.49
2022-07-29T18:40:46.221Z,91.12
2022-07-29T18:43:13.592Z,89.52
2022-07-29T18:45:40.328Z,88.71
2022-07-29T18:48:12.979Z,89.13
2022-07-29T18:50:40.430Z,90.94
2022-07-29T18:53:07.133Z,88.70
2022-07-29T18:55:33.782Z,88.13
2022-07-29T18:58:00.265Z,88.27
2022-07-29T19:00:27.388Z,87.10
2022-07-29T19:02:54.027Z,87.36
2022-07-29T19:05:21.585Z,88.57
2022-07-29T19:07:49.389Z,90.80
2022-07-29T19:10:15.994Z,90.19
2022-07-29T19:12:43.213Z,88.85
2022-07-29T19:15:10.650Z,88.73
2022-07-29T19:17:37.906Z,89.37
2022-07-29T19:20:05.230Z,89.38
2022-07-29T19:22:33.657Z,91.13
2022-07-29T19:25:00.194Z,93.73
2022-07-29T19:27:26.848Z,94.18
2022-07-29T19:29:56.628Z,94.56
2022-07-29T19:32:26.388Z,92.65
2022-07-29T19:35:11.476Z,92.80
2022-07-29T19:37:38.133Z,91.11
2022-07-29T19:40:06.506Z,90.00
2022-07-29T19:42:33.533Z,91.25
2022-07-29T19:45:00.306Z,92.63
2022-07-29T19:47:26.919Z,92.57
2022-07-29T19:49:53.543Z,93.61
2022-07-29T19:52:20.050Z,92.96
2022-07-29T19:54:46.521Z,93.00
2022-07-29T19:57:13.115Z,93.00
2022-07-29T19:59:40.926Z,92.21
2022-07-29T20:02:10.726Z,92.08
2022-07-29T20:04:37.504Z,93.02
2022-07-29T20:07:04.514Z,93.54
2022-07-29T20:09:31.223Z,95.19
2022-07-29T20:11:57.873Z,96.57
2022-07-29T20:14:24.389Z,96.70
2022-07-29T20:16:53.573Z,97.43
2022-07-29T20:19:20.173Z,97.99
2022-07-29T20:21:46.614Z,98.37
2022-07-29T20:24:13.316Z,97.66
2022-07-29T20:26:42.463Z,97.80
2022-07-29T20:29:09.091Z,98.85
2022-07-29T20:31:36.056Z,98.90
2022-07-29T20:34:02.743Z,98.88
2022-07-29T20:36:29.453Z,98.28
2022-07-29T20:38:56.495Z,98.50
2022-07-29T20:41:23.399Z,98.05
2022-07-29T20:43:49.888Z,97.78
2022-07-29T20:46:17.984Z,97.77
2022-07-29T20:48:45.208Z,96.86
2022-07-29T20:51:11.769Z,97.45
2022-07-29T20:53:39.876Z,97.90
2022-07-29T20:56:07.827Z,97.97
2022-07-29T20:58:36.061Z,98.13
2022-07-29T21:01:03.669Z,100.00
2022-07-29T21:03:30.280Z,100.00
2022-07-29T21:05:56.997Z,100.00
2022-07-29T21:08:23.686Z,100.00
2022-07-29T21:10:50.326Z,100.00
2022-07-29T21:13:17.077Z,100.00
2022-07-29T21:15:46.276Z,100.00
2022-07-29T21:18:30.416Z,100.00
2022-07-29T21:21:02.821Z,100.00
2022-07-29T21:23:30.130Z,100.00
2022-07-29T21:25:57.482Z,100.00
2022-07-29T21:28:26.833Z,100.00
2022-07-29T21:30:57.810Z,100.00
2022-07-29T21:33:26.050Z,100.00
2022-07-29T21:36:15.366Z,100.00
2022-07-29T21:38:39.703Z,100.00
2022-07-29T21:41:06.734Z,100.00
2022-07-29T21:43:33.756Z,100.00
2022-07-29T21:46:01.006Z,100.00
2022-07-29T21:48:28.526Z,100.00
2022-07-29T21:50:57.066Z,100.00
2022-07-29T21:53:26.899Z,100.00
2022-07-29T21:55:56.813Z,100.00
2022-07-29T21:58:24.504Z,100.00
2022-07-29T22:00:51.119Z,100.00
2022-07-29T22:03:17.708Z,100.00
2022-07-29T22:05:44.639Z,100.00
2022-07-29T22:08:11.437Z,100.00
2022-07-29T22:10:38.011Z,100.00
2022-07-29T22:13:04.606Z,100.00
2022-07-29T22:15:31.268Z,100.00
2022-07-29T22:17:58.157Z,100.00
2022-07-29T22:20:24.881Z,100.00
2022-07-29T22:22:51.523Z,100.00
2022-07-29T22:25:18.205Z,100.00
2022-07-29T22:27:44.921Z,100.00
2022-07-29T22:30:12.112Z,100.00
2022-07-29T22:32:38.626Z,100.00
2022-07-29T22:35:05.571Z,100.00
2022-07-29T22:37:32.115Z,100.00
2022-07-29T22:39:58.759Z,100.00
2022-07-29T22:42:25.521Z,100.00
2022-07-29T22:44:52.142Z,100.00
2022-07-29T22:47:18.691Z,100.00
2022-07-29T22:50:06.722Z,100.00
2022-07-29T22:52:33.250Z,100.00
2022-07-29T22:54:59.754Z,100.00
2022-07-29T22:57:26.874Z,100.00
2022-07-29T22:59:53.495Z,100.00
2022-07-29T23:02:20.081Z,100.00
2022-07-29T23:04:46.707Z,100.00
2022-07-29T23:07:13.218Z,99.63
2022-07-29T23:09:39.854Z,99.66
2022-07-29T23:12:06.874Z,100.00
2022-07-29T23:14:33.379Z,100.00
2022-07-29T23:17:00.220Z,100.00
2022-07-29T23:19:27.365Z,100.00
2022-07-29T23:21:53.835Z,100.00
2022-07-29T23:24:20.321Z,100.00
2022-07-29T23:26:46.770Z,100.00
2022-07-29T23:29:13.593Z,100.00
2022-07-29T23:31:42.679Z,100.00
2022-07-29T23:34:14.850Z,100.00
2022-07-29T23:36:42.309Z,100.00
2022-07-29T23:39:11.268Z,100.00
2022-07-29T23:41:38.087Z,100.00
2022-07-29T23:44:05.073Z,100.00
2022-07-29T23:46:31.633Z,100.00
2022-07-29T23:48:58.285Z,100.00
2022-07-29T23:51:24.928Z,100.00
2022-07-29T23:53:53.871Z,100.00
2022-07-29T23:56:20.706Z,100.00
2022-07-29T23:58:47.184Z,100.00
